Overview Statistics Trail Chart Weather Telemetry Raw packets
 

This is the latest recevied weather packets stored in our database for station/object DL6DJ-15. If no packets are shown the sender has not sent any weather packets the latest 10 day(s).

<< 25 26 27 28 29 30 31 >>
Time Temp. Humidity Pressure Rain* Wind** Luminosity Snow
1788438332 25.56° C 38% 1023.1 hPa - - - -
1788438032 25.56° C 36% 1023.1 hPa - - - -
1788437731 26.11° C 37% 1023 hPa - - - -
1788437431 25.56° C 39% 1023.1 hPa - - - -
1788437131 26.11° C 39% 1023.1 hPa - - - -
1788436830 25.56° C 37% 1023.2 hPa - - - -
1788436530 27.78° C 33% 1023 hPa - - - -
1788436229 27.78° C 34% 1023.1 hPa - - - -
1788435929 27.78° C 34% 1023 hPa - - - -
1788435629 27.22° C 34% 1023.1 hPa - - - -
1788435328 26.67° C 35% 1023.1 hPa - - - -
1788435028 26.67° C 34% 1023.2 hPa - - - -
1788434727 27.78° C 32% 1023.3 hPa - - - -
1788434426 28.89° C 31% 1023.3 hPa - - - -
1788434126 28.89° C 32% 1023.3 hPa - - - -
1788433826 28.89° C 32% 1023.4 hPa - - - -
1788433526 28.33° C 33% 1023.5 hPa - - - -
1788433253 27.78° C 32% 1023.6 hPa - - - -
1788432924 26.11° C 36% 1023.6 hPa - - - -
1788432624 26.67° C 34% 1023.6 hPa - - - -
1788432324 26.67° C 33% 1023.7 hPa - - - -
1788432024 28.33° C 30% 1023.8 hPa - - - -
1788431723 28.33° C 30% 1023.9 hPa - - - -
1788431423 28.89° C 29% 1023.9 hPa - - - -
1788431122 29.44° C 29% 1023.8 hPa - - - -

* Rain since midnight (hover to see other rain measurements)
** Current wind speed in m/s (hover to see current wind gust speed)